Terminal Aerodrome Forecast
Issued by NWS Albany, NY

Home | Current Version | Previous Version | Text Only | Print | Product List | Glossary On
Versions: 1 2 3 4 5 6 7 8 9 10 11 12 13 14 15 16 17 18 19 20
000
FTUS41 KALY 280900 AAC
TAFGFL
TAF AMD
KGFL 280904Z 2809/2906 00000KT 3SM BR SKC
      TEMPO 2809/2811 2SM BR BKN008
     FM281100 00000KT P6SM SCT050 SCT250
     FM281500 34012KT P6SM SCT050
     FM290000 32004KT P6SM SKC
     FM290300 00000KT 3SM BR SKC=

USA.gov is the U.S. government's official web portal to all federal, state and local government web resources and services.